Terminal Aerodrome Forecast
Issued by NWS Shreveport, LA

Home | Current Version | Previous Version | Text Only | Print | Product List | Glossary On
Versions: 1 2 3 4 5 6 7 8 9 10 11 12 13 14 15 16 17 18 19 20 21
166
FTUS44 KSHV 250531
TAFGGG
TAF
KGGG 250531Z 2506/2606 14007KT P6SM FEW150 BKN250
     FM251200 VRB04KT 5SM BR BKN130 BKN250
     FM251400 29004KT P6SM SCT030 BKN130
     FM251900 03006KT P6SM VCTS BKN050CB OVC130
      TEMPO 2521/2523 5SM -TSRA BR BKN060CB BKN150
     FM260100 09006KT P6SM OVC100=

USA.gov is the U.S. government's official web portal to all federal, state and local government web resources and services.